Main page
METAR-TAF:

METAR-TAF

Airports :

Gwadar, Pakistan

Gwadar International Airport

latitude: 25-13-59N, longitude: 062-19-46E, elevation: 29 m

METAR: missing

Time: 15:19 (10:19 UTC)

Forecast

The report was made 6 hours and 19 minutes ago, at 04:00 UTC
Forecast valid from 21 at 06 UTC to 22 at 06 UTC
Wind 10 kt from the Southwest
Visibility: 5000 m
Scattered clouds at a height of 2000 ft
haze
From UTC
Wind 8 kt from the South/Southwest
Visibility: 3000 m
Scattered clouds at a height of 2000 ft
Scattered clouds at a height of 3000 ft
smoke
Temporary
from 22 at 00 UTC to 22 at 04 UTC
Wind kt from the North
Visibility: 2000 m
Broken clouds at a height of 2500 ft
mist

TAF: OPGD 210400Z 2106/2206 23010KT 5000 HZ SCT020 FM 211500 21008KT 3000 FU SCT020 SCT030 TEMPO 2200/2204 00000KT 2000 BR BKN025

Weather observations and forecasts of more than 4000 airports (METAR and TAF reports).

The available stations are represented by yellow and red dots on the map.

Hover mouse over dot to see the name of the station.

Then click to see weather observations and forecasts.

To change the map : click on the green buttons with a black cross to zoom in, on the green button with a dash to zoom out, or on the green arrows for adjacent maps.


METAR-TAF: